createdAt,value
2019-03-19T00:00:20.286Z,3.50
2019-03-19T00:02:49.378Z,1.83
2019-03-19T00:05:18.463Z,3.10
2019-03-19T00:07:47.065Z,3.33
2019-03-19T00:10:16.190Z,3.77
2019-03-19T00:12:44.645Z,3.67
2019-03-19T00:15:14.263Z,3.17
2019-03-19T00:17:49.033Z,4.10
2019-03-19T00:20:17.576Z,3.97
2019-03-19T00:22:46.380Z,3.60
2019-03-19T00:25:15.422Z,4.70
2019-03-19T00:27:43.959Z,4.10
2019-03-19T00:30:19.027Z,4.30
2019-03-19T00:32:48.071Z,4.07
2019-03-19T00:35:17.118Z,3.63
2019-03-19T00:37:46.348Z,3.60
2019-03-19T00:40:15.853Z,3.40
2019-03-19T00:42:44.963Z,3.57
2019-03-19T00:45:14.926Z,3.83
2019-03-19T00:47:43.560Z,3.70
2019-03-19T00:50:13.869Z,4.43
2019-03-19T00:52:43.042Z,3.80
2019-03-19T00:55:12.157Z,2.87
2019-03-19T00:57:41.302Z,3.50
2019-03-19T01:00:12.712Z,3.30
2019-03-19T01:02:41.772Z,3.63
2019-03-19T01:05:10.966Z,4.10
2019-03-19T01:07:40.119Z,4.53
2019-03-19T01:10:17.501Z,3.60
2019-03-19T01:12:46.201Z,4.07
2019-03-19T01:15:15.615Z,4.03
2019-03-19T01:17:44.682Z,4.10
2019-03-19T01:20:15.552Z,4.00
2019-03-19T01:22:44.662Z,4.77
2019-03-19T01:25:13.977Z,5.00
2019-03-19T01:27:43.247Z,5.30
2019-03-19T01:30:14.716Z,2.77
2019-03-19T01:32:43.998Z,3.47
2019-03-19T01:35:13.328Z,3.77
2019-03-19T01:37:42.559Z,2.87
2019-03-19T01:40:12.608Z,3.12
2019-03-19T01:42:41.928Z,3.10
2019-03-19T01:45:14.493Z,3.23
2019-03-19T01:47:43.769Z,2.20
2019-03-19T01:50:14.310Z,1.80
2019-03-19T01:52:43.415Z,1.30
2019-03-19T01:55:13.848Z,1.80
2019-03-19T01:57:43.094Z,2.40
2019-03-19T02:00:17.314Z,2.17
2019-03-19T02:02:46.484Z,3.00
2019-03-19T02:05:15.794Z,2.73
2019-03-19T02:07:45.067Z,2.47
2019-03-19T02:10:14.993Z,2.73
2019-03-19T02:12:44.316Z,5.60
2019-03-19T02:15:17.650Z,5.33
2019-03-19T02:17:46.820Z,2.97
2019-03-19T02:20:17.368Z,2.60
2019-03-19T02:22:46.816Z,2.70
2019-03-19T02:25:16.026Z,3.00
2019-03-19T02:27:45.268Z,3.10
2019-03-19T02:30:15.501Z,2.67
2019-03-19T02:32:44.601Z,3.07
2019-03-19T02:35:14.239Z,2.47
2019-03-19T02:37:43.555Z,2.53
2019-03-19T02:40:17.455Z,2.63
2019-03-19T02:42:46.719Z,3.00
2019-03-19T02:45:17.221Z,2.93
2019-03-19T02:47:46.330Z,3.10
2019-03-19T02:50:18.718Z,3.10
2019-03-19T02:52:47.829Z,2.77
2019-03-19T02:55:16.956Z,3.00
2019-03-19T02:57:46.217Z,2.73
2019-03-19T03:00:17.431Z,2.87
2019-03-19T03:02:46.597Z,6.40
2019-03-19T03:05:17.332Z,4.47
2019-03-19T03:07:46.418Z,2.80
2019-03-19T03:10:15.878Z,2.47
2019-03-19T03:12:45.539Z,2.80
2019-03-19T03:15:15.125Z,2.77
2019-03-19T03:17:44.305Z,2.30
2019-03-19T03:20:15.790Z,2.73
2019-03-19T03:22:45.001Z,2.53
2019-03-19T03:25:15.310Z,3.00
2019-03-19T03:27:44.564Z,2.90
2019-03-19T03:30:24.123Z,3.10
2019-03-19T03:32:53.526Z,3.30
2019-03-19T03:35:22.770Z,4.00
2019-03-19T03:37:52.094Z,2.80
2019-03-19T03:40:21.403Z,2.90
2019-03-19T03:42:50.531Z,2.50
2019-03-19T03:45:20.406Z,2.70
2019-03-19T03:47:49.558Z,2.73
2019-03-19T03:50:19.467Z,2.93
2019-03-19T03:52:48.828Z,3.27
2019-03-19T03:55:20.027Z,2.67
2019-03-19T03:57:49.264Z,2.50
2019-03-19T04:00:23.629Z,4.70
2019-03-19T04:02:52.780Z,3.07
2019-03-19T04:05:21.984Z,3.10
2019-03-19T04:07:51.183Z,2.90
2019-03-19T04:10:20.545Z,2.80
2019-03-19T04:12:49.653Z,2.67
2019-03-19T04:15:19.314Z,2.73
2019-03-19T04:17:48.435Z,2.43
2019-03-19T04:20:19.834Z,2.43
2019-03-19T04:22:50.103Z,1.90
2019-03-19T04:25:19.258Z,2.40
2019-03-19T04:27:48.347Z,2.27
2019-03-19T04:30:19.968Z,2.53
2019-03-19T04:32:49.118Z,3.13
2019-03-19T04:35:18.209Z,3.00
2019-03-19T04:37:48.389Z,2.23
2019-03-19T04:40:17.563Z,2.57
2019-03-19T04:42:47.721Z,3.13
2019-03-19T04:45:17.534Z,2.50
2019-03-19T04:47:46.641Z,4.73
2019-03-19T04:50:18.643Z,4.00
2019-03-19T04:52:47.807Z,2.57
2019-03-19T04:55:17.589Z,2.30
2019-03-19T04:57:46.782Z,1.80
2019-03-19T05:00:19.062Z,2.13
2019-03-19T05:02:48.310Z,2.60
2019-03-19T05:05:16.908Z,2.50
2019-03-19T05:07:47.202Z,2.30
2019-03-19T05:10:17.214Z,2.63
2019-03-19T05:12:46.034Z,2.53
2019-03-19T05:15:15.259Z,2.90
2019-03-19T05:17:43.938Z,2.77
2019-03-19T05:20:18.432Z,2.83
2019-03-19T05:22:46.957Z,3.27
2019-03-19T05:25:15.504Z,3.27
2019-03-19T05:27:44.106Z,3.23
2019-03-19T05:30:16.893Z,3.50
2019-03-19T05:32:45.439Z,3.73
2019-03-19T05:35:14.159Z,5.40
2019-03-19T05:37:42.694Z,13.47
2019-03-19T05:40:14.424Z,11.63
2019-03-19T05:42:43.973Z,12.23
2019-03-19T05:45:14.519Z,16.23
2019-03-19T05:47:43.062Z,10.60
2019-03-19T05:50:20.630Z,7.97
2019-03-19T05:52:49.121Z,5.70
2019-03-19T05:55:17.681Z,4.10
2019-03-19T05:57:49.934Z,3.80
2019-03-19T06:00:19.182Z,3.57
2019-03-19T06:02:47.651Z,4.17
2019-03-19T06:05:16.324Z,4.47
2019-03-19T06:07:44.882Z,3.43
2019-03-19T06:10:14.259Z,3.57
2019-03-19T06:12:42.790Z,3.77
2019-03-19T06:15:15.724Z,3.47
2019-03-19T06:17:44.256Z,4.40
2019-03-19T06:20:16.942Z,3.67
2019-03-19T06:22:45.663Z,5.63
2019-03-19T06:25:14.487Z,4.30
2019-03-19T06:27:43.043Z,4.53
2019-03-19T06:30:20.624Z,4.60
2019-03-19T06:32:49.155Z,3.67
2019-03-19T06:35:17.621Z,3.77
2019-03-19T06:37:46.154Z,3.90
2019-03-19T06:40:15.831Z,4.33
2019-03-19T06:42:44.281Z,3.93
2019-03-19T06:45:17.168Z,4.20
2019-03-19T06:47:45.824Z,3.37
2019-03-19T06:50:18.888Z,3.20
2019-03-19T06:52:47.498Z,3.07
2019-03-19T06:55:21.630Z,3.73
2019-03-19T06:57:50.083Z,3.30
2019-03-19T07:00:20.016Z,3.80
2019-03-19T07:02:50.716Z,4.07
2019-03-19T07:05:20.114Z,3.67
2019-03-19T07:07:48.822Z,3.70
2019-03-19T07:10:18.425Z,2.97
2019-03-19T07:12:47.904Z,3.33
2019-03-19T07:15:18.471Z,2.33
2019-03-19T07:17:47.060Z,2.77
2019-03-19T07:20:20.555Z,3.50
2019-03-19T07:22:50.170Z,3.20
2019-03-19T07:25:18.768Z,3.20
2019-03-19T07:27:47.228Z,1.90
2019-03-19T07:30:19.827Z,2.37
2019-03-19T07:32:48.358Z,3.13
2019-03-19T07:35:17.001Z,1.77
2019-03-19T07:37:45.702Z,2.13
2019-03-19T07:40:16.023Z,3.10
2019-03-19T07:42:44.625Z,3.27
2019-03-19T07:45:23.840Z,1.23
2019-03-19T07:47:52.469Z,1.43
2019-03-19T07:50:24.449Z,2.07
2019-03-19T07:55:32.105Z,2.57
2019-03-19T07:58:00.764Z,2.20
2019-03-19T08:00:29.283Z,1.47
2019-03-19T08:02:57.770Z,1.93
2019-03-19T08:05:32.948Z,2.17
2019-03-19T08:07:56.481Z,1.83
2019-03-19T08:10:24.947Z,2.33
2019-03-19T08:12:53.459Z,2.33
2019-03-19T08:15:22.656Z,1.97
2019-03-19T08:17:51.185Z,2.53
2019-03-19T08:20:25.483Z,2.43
2019-03-19T08:22:55.385Z,1.60
2019-03-19T08:25:23.845Z,2.20
2019-03-19T08:27:52.310Z,1.80
2019-03-19T08:30:24.425Z,1.80
2019-03-19T08:32:52.556Z,1.23
2019-03-19T08:35:21.007Z,1.13
2019-03-19T08:37:49.588Z,1.60
2019-03-19T08:40:19.057Z,1.15
2019-03-19T08:42:47.537Z,1.30
2019-03-19T08:45:21.267Z,1.83
2019-03-19T08:47:49.829Z,1.33
2019-03-19T08:50:23.293Z,1.60
2019-03-19T08:52:51.834Z,1.23
2019-03-19T08:55:20.350Z,0.83
2019-03-19T08:57:48.868Z,1.80
2019-03-19T09:00:26.327Z,1.33
2019-03-19T09:02:54.842Z,1.60
2019-03-19T09:05:23.313Z,1.30
2019-03-19T09:07:52.067Z,0.70
2019-03-19T09:10:21.328Z,1.60
2019-03-19T09:12:49.789Z,1.43
2019-03-19T09:15:22.982Z,1.50
2019-03-19T09:17:52.518Z,1.30
2019-03-19T09:20:21.119Z,1.10
2019-03-19T09:22:49.725Z,1.40
2019-03-19T09:25:18.279Z,1.70
2019-03-19T09:27:46.720Z,1.83
2019-03-19T09:30:22.481Z,1.03
2019-03-19T09:32:51.021Z,1.57
2019-03-19T09:35:19.542Z,1.53
2019-03-19T09:37:57.820Z,1.30
2019-03-19T09:40:21.365Z,1.27
2019-03-19T09:42:50.772Z,1.70
2019-03-19T09:45:19.513Z,1.40
2019-03-19T09:47:48.991Z,1.70
2019-03-19T09:50:27.646Z,2.53
2019-03-19T09:52:56.117Z,1.30
2019-03-19T09:55:26.373Z,1.60
2019-03-19T09:57:54.988Z,1.30
2019-03-19T10:00:24.096Z,1.50
2019-03-19T10:02:52.788Z,1.80
2019-03-19T10:05:21.426Z,1.27
2019-03-19T10:07:50.550Z,1.50
2019-03-19T10:10:23.383Z,1.60
2019-03-19T10:12:52.197Z,1.40
2019-03-19T10:15:20.999Z,1.40
2019-03-19T10:17:49.452Z,1.23
2019-03-19T10:20:23.404Z,1.80
2019-03-19T10:22:51.877Z,2.00
2019-03-19T10:25:20.325Z,1.80
2019-03-19T10:27:48.963Z,1.40
2019-03-19T10:30:21.605Z,1.55
2019-03-19T10:32:50.289Z,1.40
2019-03-19T10:35:19.671Z,1.90
2019-03-19T10:37:48.201Z,1.70
2019-03-19T10:40:20.360Z,1.60
2019-03-19T10:42:49.069Z,1.97
2019-03-19T10:45:21.587Z,1.37
2019-03-19T10:47:50.107Z,1.80
2019-03-19T10:50:23.023Z,2.00
2019-03-19T10:52:51.481Z,1.43
2019-03-19T10:55:20.295Z,2.60
2019-03-19T10:57:48.927Z,2.77
2019-03-19T11:00:19.802Z,1.83
2019-03-19T11:02:49.597Z,2.27
2019-03-19T11:05:18.755Z,1.57
2019-03-19T11:07:47.303Z,2.27
2019-03-19T11:10:16.434Z,2.00
2019-03-19T11:12:45.308Z,2.20
2019-03-19T11:15:18.360Z,2.30
2019-03-19T11:17:47.966Z,2.37
2019-03-19T11:20:20.226Z,2.83
2019-03-19T11:22:48.817Z,2.20
2019-03-19T11:25:26.481Z,2.27
2019-03-19T11:27:54.937Z,2.47
2019-03-19T11:30:25.676Z,2.37
2019-03-19T11:32:54.515Z,3.13
2019-03-19T11:35:23.310Z,2.27
2019-03-19T11:37:51.789Z,1.67
2019-03-19T11:40:21.482Z,1.80
2019-03-19T11:42:50.772Z,2.20
2019-03-19T11:45:22.355Z,2.10
2019-03-19T11:47:50.942Z,2.20
2019-03-19T11:50:21.995Z,2.00
2019-03-19T11:52:51.026Z,2.00
2019-03-19T11:55:19.812Z,2.20
2019-03-19T11:57:48.428Z,1.93
2019-03-19T12:00:26.540Z,2.07
2019-03-19T12:02:55.013Z,2.13
2019-03-19T12:05:23.478Z,2.40
2019-03-19T12:07:52.076Z,2.10
2019-03-19T12:10:20.598Z,2.20
2019-03-19T12:12:49.116Z,2.10
2019-03-19T12:15:17.788Z,2.00
2019-03-19T12:17:48.720Z,2.17
2019-03-19T12:20:20.624Z,2.70
2019-03-19T12:22:49.900Z,2.97
2019-03-19T12:25:18.496Z,2.40
2019-03-19T12:27:47.022Z,2.30
2019-03-19T12:30:22.454Z,2.30
2019-03-19T12:32:48.327Z,2.90
2019-03-19T12:35:18.444Z,2.73
2019-03-19T12:37:47.151Z,2.20
2019-03-19T12:40:19.895Z,2.43
2019-03-19T12:42:48.436Z,1.90
2019-03-19T12:45:22.416Z,2.17
2019-03-19T12:47:50.953Z,2.17
2019-03-19T12:50:22.624Z,2.23
2019-03-19T12:52:51.227Z,2.27
2019-03-19T12:55:19.683Z,2.27
2019-03-19T12:57:48.146Z,1.87
2019-03-19T13:00:33.597Z,2.10
2019-03-19T13:02:54.819Z,2.17
2019-03-19T13:05:23.604Z,1.70
2019-03-19T13:07:52.366Z,1.90
2019-03-19T13:10:22.090Z,1.90
2019-03-19T13:12:50.739Z,2.23
2019-03-19T13:15:20.347Z,1.77
2019-03-19T13:17:48.951Z,1.83
2019-03-19T13:20:18.538Z,2.00
2019-03-19T13:22:47.227Z,2.10
2019-03-19T13:25:20.810Z,1.70
2019-03-19T13:27:49.300Z,1.70
2019-03-19T13:30:22.689Z,2.30
2019-03-19T13:32:51.151Z,1.73
2019-03-19T13:35:19.627Z,2.20
2019-03-19T13:37:48.244Z,1.77
2019-03-19T13:40:20.128Z,1.50
2019-03-19T13:42:50.498Z,1.30
2019-03-19T13:45:23.041Z,1.60
2019-03-19T13:47:51.596Z,1.40
2019-03-19T13:50:20.789Z,1.87
2019-03-19T13:52:49.468Z,1.90
2019-03-19T13:55:20.019Z,1.67
2019-03-19T13:57:48.478Z,1.57
2019-03-19T14:00:19.078Z,2.23
2019-03-19T14:02:47.532Z,1.63
2019-03-19T14:05:16.843Z,2.43
2019-03-19T14:07:45.582Z,1.90
2019-03-19T14:10:15.283Z,1.80
2019-03-19T14:12:43.724Z,1.87
2019-03-19T14:15:15.014Z,2.03
2019-03-19T14:17:43.686Z,1.43
2019-03-19T14:20:14.313Z,1.50
2019-03-19T14:22:45.473Z,1.90
2019-03-19T14:25:16.140Z,2.30
2019-03-19T14:27:44.719Z,2.90
2019-03-19T14:30:22.875Z,2.53
2019-03-19T14:32:51.311Z,7.13
2019-03-19T14:35:19.937Z,3.60
2019-03-19T14:37:48.557Z,2.40
2019-03-19T14:40:23.947Z,2.70
2019-03-19T14:42:52.432Z,2.47
2019-03-19T14:45:21.089Z,2.83
2019-03-19T14:47:49.877Z,3.17
2019-03-19T14:50:23.492Z,3.33
2019-03-19T14:52:52.303Z,2.50
2019-03-19T14:55:20.761Z,2.13
2019-03-19T14:57:50.941Z,3.20
2019-03-19T15:00:23.278Z,3.30
2019-03-19T15:02:51.916Z,2.47
2019-03-19T15:05:22.658Z,2.73
2019-03-19T15:07:51.296Z,2.70
2019-03-19T15:10:23.836Z,2.85
2019-03-19T15:12:52.434Z,3.20
2019-03-19T15:15:22.136Z,5.77
2019-03-19T15:17:50.678Z,4.97
2019-03-19T15:20:23.853Z,5.43
2019-03-19T15:22:52.389Z,5.20
2019-03-19T15:25:20.880Z,5.53
2019-03-19T15:27:49.493Z,3.50
2019-03-19T15:30:18.808Z,4.20
2019-03-19T15:32:47.360Z,4.43
2019-03-19T15:35:16.082Z,3.63
2019-03-19T15:37:44.613Z,4.00
2019-03-19T15:44:10.042Z,3.90
2019-03-19T15:46:39.387Z,3.03
2019-03-19T15:49:07.945Z,3.57
2019-03-19T15:51:36.498Z,3.67
2019-03-19T15:54:05.040Z,3.97
2019-03-19T15:56:33.498Z,3.30
2019-03-19T15:59:02.189Z,3.30
2019-03-19T16:01:40.078Z,3.37
2019-03-19T16:04:00.931Z,3.03
2019-03-19T16:06:29.392Z,3.10
2019-03-19T16:08:58.906Z,3.20
2019-03-19T16:11:27.365Z,3.93
2019-03-19T16:13:55.869Z,4.80
2019-03-19T16:16:24.323Z,4.80
2019-03-19T16:18:53.811Z,4.23
2019-03-19T16:21:22.377Z,3.53
2019-03-19T16:23:50.877Z,3.30
2019-03-19T16:26:19.401Z,2.90
2019-03-19T16:28:48.027Z,2.73
2019-03-19T16:31:16.621Z,3.60
2019-03-19T16:33:45.083Z,4.07
2019-03-19T16:36:13.551Z,4.80
2019-03-19T16:38:42.031Z,6.47
2019-03-19T16:41:10.673Z,5.80
2019-03-19T16:43:39.165Z,6.23
2019-03-19T16:46:07.667Z,5.77
2019-03-19T16:48:36.291Z,5.77
2019-03-19T16:51:04.834Z,5.80
2019-03-19T16:53:33.444Z,6.27
2019-03-19T16:56:02.016Z,7.03
2019-03-19T16:58:30.456Z,7.83
2019-03-19T17:00:59.041Z,8.33
2019-03-19T17:03:27.615Z,6.10
2019-03-19T17:05:56.119Z,7.43
2019-03-19T17:08:24.578Z,7.10
2019-03-19T17:10:53.065Z,7.27
2019-03-19T17:13:21.548Z,7.50
2019-03-19T17:15:50.047Z,7.20
2019-03-19T17:18:18.563Z,7.63
2019-03-19T17:20:48.028Z,10.57
2019-03-19T17:23:16.489Z,14.80
2019-03-19T17:25:45.026Z,14.53
2019-03-19T17:28:22.166Z,16.70
2019-03-19T17:30:44.688Z,15.97
2019-03-19T17:33:13.224Z,18.00
2019-03-19T17:35:41.749Z,18.83
2019-03-19T17:38:10.209Z,18.83
2019-03-19T17:40:41.696Z,20.17
2019-03-19T17:43:08.922Z,15.03
2019-03-19T17:45:37.409Z,10.40
2019-03-19T17:48:15.774Z,15.13
2019-03-19T17:50:41.491Z,8.90
2019-03-19T17:53:09.948Z,9.50
2019-03-19T17:55:40.430Z,11.60
2019-03-19T17:58:09.024Z,13.03
2019-03-19T18:00:44.685Z,13.13
2019-03-19T18:03:14.185Z,14.50
2019-03-19T18:05:42.672Z,12.90
2019-03-19T18:08:11.134Z,13.53
2019-03-19T18:10:39.773Z,11.83
2019-03-19T18:13:08.235Z,11.20
2019-03-19T18:15:36.716Z,11.90
2019-03-19T18:18:05.405Z,13.63
2019-03-19T18:20:35.878Z,14.03
2019-03-19T18:23:04.504Z,11.47
2019-03-19T18:25:33.020Z,9.50
2019-03-19T18:28:01.481Z,10.53
2019-03-19T18:30:30.012Z,9.83
2019-03-19T18:32:58.499Z,10.70
2019-03-19T18:35:27.052Z,11.03
2019-03-19T18:37:55.514Z,15.57
2019-03-19T18:40:24.072Z,16.37
2019-03-19T18:42:52.604Z,16.30
2019-03-19T18:45:25.333Z,15.97
2019-03-19T18:47:53.797Z,16.40
2019-03-19T18:53:03.295Z,14.90
2019-03-19T18:58:10.066Z,15.30
2019-03-19T19:00:38.542Z,17.23
2019-03-19T19:03:07.076Z,21.17
2019-03-19T19:05:36.185Z,19.07
2019-03-19T19:08:04.764Z,15.73
2019-03-19T19:10:33.892Z,15.30
2019-03-19T19:13:04.295Z,15.57
2019-03-19T19:15:35.400Z,15.17
2019-03-19T19:18:04.716Z,46.70
2019-03-19T19:20:33.824Z,33.33
2019-03-19T19:23:03.140Z,33.87
2019-03-19T19:25:32.315Z,61.73
2019-03-19T19:28:01.430Z,42.17
2019-03-19T19:30:34.066Z,34.27
2019-03-19T19:33:03.193Z,30.33
2019-03-19T19:35:32.290Z,28.73
2019-03-19T19:38:03.403Z,30.20
2019-03-19T19:40:32.231Z,35.43
2019-03-19T19:43:01.436Z,49.03
2019-03-19T19:45:30.541Z,33.90
2019-03-19T19:47:59.689Z,27.70
2019-03-19T19:50:28.799Z,30.63
2019-03-19T19:52:57.916Z,40.73
2019-03-19T19:55:27.010Z,35.43
2019-03-19T19:57:56.239Z,35.37
2019-03-19T20:00:25.504Z,34.07
2019-03-19T20:03:12.377Z,34.80
2019-03-19T20:05:38.255Z,25.83
2019-03-19T20:08:07.476Z,25.57
2019-03-19T20:10:37.617Z,27.83
2019-03-19T20:13:08.711Z,34.73
2019-03-19T20:15:37.923Z,36.47
2019-03-19T20:18:07.108Z,35.07
2019-03-19T20:20:36.253Z,34.90
2019-03-19T20:23:17.838Z,36.03
2019-03-19T20:25:46.982Z,36.03
2019-03-19T20:28:18.189Z,34.30
2019-03-19T20:30:47.333Z,38.67
2019-03-19T20:33:24.695Z,45.40
2019-03-19T20:35:47.401Z,48.63
2019-03-19T20:38:16.580Z,49.10
2019-03-19T20:40:45.802Z,44.97
2019-03-19T20:43:15.029Z,53.20
2019-03-19T20:45:44.207Z,48.77
2019-03-19T20:48:13.423Z,43.13
2019-03-19T20:50:42.602Z,45.30
2019-03-19T20:53:11.859Z,44.13
2019-03-19T20:55:41.115Z,40.33
2019-03-19T20:58:10.301Z,50.60
2019-03-19T21:00:39.547Z,44.10
2019-03-19T21:03:08.806Z,43.37
2019-03-19T21:05:37.969Z,49.63
2019-03-19T21:08:07.181Z,48.80
2019-03-19T21:10:36.371Z,58.80
2019-03-19T21:13:05.621Z,80.33
2019-03-19T21:15:35.955Z,82.20
2019-03-19T21:18:05.192Z,85.43
2019-03-19T21:20:34.381Z,90.70
2019-03-19T21:23:03.612Z,92.20
2019-03-19T21:25:32.816Z,75.70
2019-03-19T21:28:02.038Z,109.80
2019-03-19T21:30:31.248Z,98.03
2019-03-19T21:33:00.457Z,138.80
2019-03-19T21:35:29.743Z,186.13
2019-03-19T21:37:58.991Z,184.30
2019-03-19T21:40:28.216Z,196.17
2019-03-19T21:42:57.444Z,165.93
2019-03-19T21:45:26.667Z,130.67
2019-03-19T21:47:56.127Z,124.17
2019-03-19T21:50:26.083Z,121.30
2019-03-19T21:52:55.353Z,120.67
2019-03-19T21:55:24.587Z,113.47
2019-03-19T21:57:53.813Z,113.90
2019-03-19T22:00:24.585Z,123.57
2019-03-19T22:02:53.937Z,159.87
2019-03-19T22:05:23.175Z,137.47
2019-03-19T22:07:52.450Z,121.13
2019-03-19T22:10:22.765Z,101.30
2019-03-19T22:12:52.302Z,77.23
2019-03-19T22:15:23.837Z,93.60
2019-03-19T22:17:54.157Z,98.50
2019-03-19T22:20:23.478Z,106.30
2019-03-19T22:22:52.825Z,110.80
2019-03-19T22:25:22.090Z,109.27
2019-03-19T22:27:51.348Z,98.37
2019-03-19T22:30:21.624Z,83.27
2019-03-19T22:32:50.941Z,84.33
2019-03-19T22:35:20.161Z,79.57
2019-03-19T22:37:49.450Z,81.53
2019-03-19T22:40:19.171Z,77.57
2019-03-19T22:42:48.467Z,90.97
2019-03-19T22:45:18.677Z,95.00
2019-03-19T22:47:48.300Z,87.33
2019-03-19T22:50:18.594Z,78.60
2019-03-19T22:52:48.308Z,80.83
2019-03-19T22:55:28.194Z,81.90
2019-03-19T22:57:48.830Z,80.37
2019-03-19T23:00:38.118Z,77.90
2019-03-19T23:03:08.139Z,74.50
2019-03-19T23:05:37.459Z,79.03
2019-03-19T23:08:06.845Z,80.00
2019-03-19T23:10:36.467Z,87.53
2019-03-19T23:13:05.986Z,80.43
2019-03-19T23:15:35.396Z,90.77
2019-03-19T23:18:05.705Z,91.07
2019-03-19T23:20:35.106Z,92.90
2019-03-19T23:23:04.617Z,86.70
2019-03-19T23:25:33.932Z,72.77
2019-03-19T23:28:03.383Z,71.43
2019-03-19T23:30:32.747Z,65.03
2019-03-19T23:33:02.050Z,55.98
2019-03-19T23:35:31.369Z,50.00
2019-03-19T23:38:00.698Z,54.65
2019-03-19T23:40:30.002Z,56.90
2019-03-19T23:42:59.281Z,52.77
2019-03-19T23:45:28.617Z,57.10
2019-03-19T23:47:57.909Z,56.05
2019-03-19T23:50:27.221Z,49.60
2019-03-19T23:52:57.554Z,53.48
2019-03-19T23:55:26.853Z,52.98
2019-03-19T23:57:56.200Z,47.27
